createdAt,value
2024-05-09T00:00:40.835Z,6.72
2024-05-09T00:03:10.492Z,6.45
2024-05-09T00:05:39.412Z,6.93
2024-05-09T00:08:06.969Z,6.40
2024-05-09T00:10:37.545Z,6.63
2024-05-09T00:13:10.626Z,6.88
2024-05-09T00:15:38.380Z,6.50
2024-05-09T00:18:07.371Z,6.97
2024-05-09T00:20:39.211Z,6.82
2024-05-09T00:23:12.289Z,6.50
2024-05-09T00:25:40.761Z,7.20
2024-05-09T00:28:08.059Z,6.82
2024-05-09T00:30:37.005Z,6.97
2024-05-09T00:33:06.515Z,7.57
2024-05-09T00:35:35.316Z,7.60
2024-05-09T00:38:02.833Z,7.30
2024-05-09T00:40:42.223Z,7.40
2024-05-09T00:43:12.292Z,7.18
2024-05-09T00:45:40.537Z,7.10
2024-05-09T00:48:09.510Z,7.40
2024-05-09T00:50:39.142Z,7.40
2024-05-09T00:53:11.830Z,7.03
2024-05-09T00:55:39.976Z,6.88
2024-05-09T00:58:08.321Z,7.68
2024-05-09T01:00:39.583Z,7.20
2024-05-09T01:03:10.396Z,7.50
2024-05-09T01:05:40.213Z,7.15
2024-05-09T01:08:08.520Z,7.40
2024-05-09T01:10:36.763Z,6.93
2024-05-09T01:13:07.737Z,6.95
2024-05-09T01:15:35.846Z,6.78
2024-05-09T01:18:06.632Z,7.50
2024-05-09T01:23:11.756Z,6.45
2024-05-09T01:25:39.796Z,6.78
2024-05-09T01:28:07.554Z,7.20
2024-05-09T01:30:37.175Z,6.97
2024-05-09T01:33:07.730Z,6.95
2024-05-09T01:35:37.068Z,7.38
2024-05-09T01:38:04.676Z,7.93
2024-05-09T01:40:37.727Z,7.32
2024-05-09T01:43:07.732Z,7.50
2024-05-09T01:45:35.389Z,7.88
2024-05-09T01:48:03.213Z,7.50
2024-05-09T01:53:01.245Z,7.95
2024-05-09T01:55:29.710Z,7.32
2024-05-09T01:57:56.949Z,7.45
2024-05-09T02:00:36.855Z,7.63
2024-05-09T02:03:10.049Z,7.32
2024-05-09T02:05:38.244Z,7.50
2024-05-09T02:08:06.063Z,6.90
2024-05-09T02:10:33.717Z,7.10
2024-05-09T02:13:01.299Z,7.45
2024-05-09T02:15:28.579Z,7.75
2024-05-09T02:17:56.057Z,7.95
2024-05-09T02:20:30.644Z,7.57
2024-05-09T02:23:05.013Z,7.20
2024-05-09T02:25:33.078Z,6.93
2024-05-09T02:28:00.517Z,7.03
2024-05-09T02:30:38.414Z,6.88
2024-05-09T02:33:09.869Z,6.93
2024-05-09T02:35:38.897Z,6.80
2024-05-09T02:38:06.310Z,7.07
2024-05-09T02:40:37.647Z,7.22
2024-05-09T02:43:11.278Z,6.72
2024-05-09T02:45:40.413Z,7.05
2024-05-09T02:48:08.305Z,6.93
2024-05-09T02:50:39.152Z,6.82
2024-05-09T02:53:08.414Z,7.18
2024-05-09T02:55:36.276Z,7.20
2024-05-09T02:58:03.520Z,6.90
2024-05-09T03:00:38.179Z,7.25
2024-05-09T03:03:10.034Z,7.63
2024-05-09T03:05:39.320Z,6.53
2024-05-09T03:08:06.986Z,6.47
2024-05-09T03:10:36.790Z,7.35
2024-05-09T03:13:09.980Z,7.32
2024-05-09T03:15:37.403Z,6.53
2024-05-09T03:18:06.380Z,6.97
2024-05-09T03:20:35.893Z,7.43
2024-05-09T03:23:05.157Z,7.63
2024-05-09T03:25:32.927Z,6.82
2024-05-09T03:28:00.199Z,6.95
2024-05-09T03:30:38.637Z,7.40
2024-05-09T03:33:15.201Z,6.60
2024-05-09T03:35:44.084Z,7.00
2024-05-09T03:38:11.491Z,7.38
2024-05-09T03:40:44.802Z,7.53
2024-05-09T03:43:12.146Z,6.93
2024-05-09T03:45:39.408Z,6.97
2024-05-09T03:48:06.956Z,7.18
2024-05-09T03:50:36.112Z,6.90
2024-05-09T03:53:04.468Z,7.18
2024-05-09T03:55:31.874Z,7.07
2024-05-09T03:57:59.438Z,7.53
2024-05-09T04:00:35.133Z,6.57
2024-05-09T04:03:08.551Z,6.68
2024-05-09T04:05:39.548Z,7.40
2024-05-09T04:08:07.381Z,6.85
2024-05-09T04:10:35.446Z,6.97
2024-05-09T04:13:04.091Z,7.05
2024-05-09T04:15:32.254Z,7.05
2024-05-09T04:18:00.181Z,6.90
2024-05-09T04:20:36.314Z,7.35
2024-05-09T04:23:08.054Z,6.90
2024-05-09T04:25:37.400Z,6.55
2024-05-09T04:28:05.171Z,6.95
2024-05-09T04:30:38.130Z,6.40
2024-05-09T04:33:10.134Z,7.00
2024-05-09T04:35:39.642Z,7.15
2024-05-09T04:38:07.200Z,7.88
2024-05-09T04:40:36.719Z,6.93
2024-05-09T04:43:08.091Z,8.15
2024-05-09T04:45:35.875Z,7.85
2024-05-09T04:48:03.888Z,7.65
2024-05-09T04:50:36.937Z,7.95
2024-05-09T04:53:10.670Z,8.25
2024-05-09T04:55:39.180Z,8.45
2024-05-09T04:58:09.043Z,8.13
2024-05-09T05:00:38.756Z,8.25
2024-05-09T05:05:43.702Z,8.32
2024-05-09T05:08:12.874Z,8.13
2024-05-09T05:10:40.693Z,8.52
2024-05-09T05:13:20.179Z,9.55
2024-05-09T05:15:52.049Z,9.50
2024-05-09T05:18:19.838Z,8.88
2024-05-09T05:20:47.493Z,9.02
2024-05-09T05:23:16.506Z,9.55
2024-05-09T05:25:44.978Z,11.35
2024-05-09T05:28:12.274Z,10.68
2024-05-09T05:30:39.738Z,10.40
2024-05-09T05:33:07.616Z,11.05
2024-05-09T05:35:35.354Z,10.30
2024-05-09T05:38:03.283Z,10.45
2024-05-09T05:40:37.090Z,10.13
2024-05-09T05:43:10.458Z,10.38
2024-05-09T05:45:38.753Z,10.30
2024-05-09T05:48:07.334Z,10.45
2024-05-09T05:50:37.453Z,11.23
2024-05-09T05:53:06.895Z,11.48
2024-05-09T05:55:34.695Z,11.48
2024-05-09T05:58:02.366Z,11.25
2024-05-09T06:00:37.366Z,11.05
2024-05-09T06:05:35.200Z,11.40
2024-05-09T06:08:02.577Z,11.60
2024-05-09T06:10:37.551Z,12.02
2024-05-09T06:13:07.325Z,12.00
2024-05-09T06:15:34.753Z,11.98
2024-05-09T06:18:02.352Z,11.68
2024-05-09T06:20:36.182Z,10.63
2024-05-09T06:23:06.229Z,12.13
2024-05-09T06:25:34.046Z,11.55
2024-05-09T06:28:01.744Z,11.93
2024-05-09T06:30:37.555Z,11.90
2024-05-09T06:33:08.251Z,10.48
2024-05-09T06:35:37.256Z,9.88
2024-05-09T06:38:04.932Z,10.75
2024-05-09T06:40:38.275Z,10.68
2024-05-09T06:43:18.697Z,11.27
2024-05-09T06:45:48.581Z,10.07
2024-05-09T06:48:19.292Z,10.30
2024-05-09T06:50:47.233Z,11.55
2024-05-09T06:53:15.143Z,10.07
2024-05-09T06:55:42.562Z,10.30
2024-05-09T06:58:09.983Z,9.77
2024-05-09T07:00:39.980Z,10.27
2024-05-09T07:03:09.978Z,10.32
2024-05-09T07:05:38.328Z,10.45
2024-05-09T07:08:06.832Z,9.98
2024-05-09T07:10:35.938Z,10.45
2024-05-09T07:13:04.117Z,10.07
2024-05-09T07:15:31.464Z,10.45
2024-05-09T07:17:59.040Z,10.45
2024-05-09T07:20:33.862Z,10.65
2024-05-09T07:23:03.460Z,10.63
2024-05-09T07:25:31.001Z,10.70
2024-05-09T07:27:58.342Z,9.55
2024-05-09T07:30:32.846Z,9.57
2024-05-09T07:33:02.639Z,9.85
2024-05-09T07:35:30.931Z,8.88
2024-05-09T07:37:58.769Z,9.15
2024-05-09T07:40:33.199Z,9.30
2024-05-09T07:43:04.388Z,9.15
2024-05-09T07:45:48.148Z,8.80
2024-05-09T07:50:00.977Z,8.25
2024-05-09T07:53:47.369Z,7.22
2024-05-09T07:56:19.477Z,7.65
2024-05-09T07:58:50.360Z,6.90
2024-05-09T08:01:17.832Z,6.32
2024-05-09T08:03:45.632Z,6.95
2024-05-09T08:06:13.098Z,7.28
2024-05-09T08:08:40.340Z,7.22
2024-05-09T08:11:07.570Z,7.50
2024-05-09T08:13:34.843Z,6.93
2024-05-09T08:16:02.179Z,7.18
2024-05-09T08:18:31.005Z,6.68
2024-05-09T08:20:58.459Z,6.15
2024-05-09T08:23:25.720Z,6.38
2024-05-09T08:25:53.114Z,6.20
2024-05-09T08:28:20.748Z,6.47
2024-05-09T08:30:48.432Z,6.88
2024-05-09T08:33:16.222Z,7.28
2024-05-09T08:35:43.592Z,6.10
2024-05-09T08:38:11.042Z,7.20
2024-05-09T08:40:38.688Z,6.32
2024-05-09T08:43:11.695Z,6.97
2024-05-09T08:45:44.181Z,5.78
2024-05-09T08:48:13.179Z,6.82
2024-05-09T08:50:41.426Z,6.90
2024-05-09T08:53:09.310Z,7.10
2024-05-09T08:55:40.636Z,6.40
2024-05-09T08:58:13.323Z,6.55
2024-05-09T09:00:41.070Z,7.43
2024-05-09T09:03:09.762Z,6.70
2024-05-09T09:05:38.907Z,7.55
2024-05-09T09:08:07.872Z,6.60
2024-05-09T09:10:35.848Z,5.50
2024-05-09T09:13:09.527Z,6.60
2024-05-09T09:15:47.623Z,7.10
2024-05-09T09:18:16.272Z,5.90
2024-05-09T09:20:48.495Z,6.55
2024-05-09T09:23:15.846Z,8.00
2024-05-09T09:25:43.240Z,7.70
2024-05-09T09:28:10.764Z,8.13
2024-05-09T09:30:41.887Z,7.15
2024-05-09T09:33:10.336Z,7.50
2024-05-09T09:35:39.702Z,4.95
2024-05-09T09:38:07.954Z,6.70
2024-05-09T09:40:40.453Z,5.57
2024-05-09T09:43:14.855Z,6.97
2024-05-09T09:45:46.973Z,6.72
2024-05-09T09:48:15.806Z,6.40
2024-05-09T09:50:46.651Z,6.75
2024-05-09T09:53:16.916Z,6.38
2024-05-09T09:55:44.460Z,4.88
2024-05-09T09:58:14.094Z,5.47
2024-05-09T10:00:42.353Z,4.72
2024-05-09T10:03:10.121Z,7.15
2024-05-09T10:05:38.868Z,5.55
2024-05-09T10:08:08.169Z,7.30
2024-05-09T10:10:36.146Z,4.35
2024-05-09T10:13:04.167Z,6.30
2024-05-09T10:15:50.477Z,6.75
2024-05-09T10:18:22.686Z,6.57
2024-05-09T10:20:51.752Z,6.00
2024-05-09T10:23:26.106Z,6.57
2024-05-09T10:25:57.619Z,5.85
2024-05-09T10:28:31.871Z,5.88
2024-05-09T10:31:02.198Z,7.70
2024-05-09T10:33:38.723Z,7.68
2024-05-09T10:36:19.250Z,7.38
2024-05-09T10:38:46.846Z,7.60
2024-05-09T10:41:14.246Z,6.97
2024-05-09T10:43:41.866Z,7.43
2024-05-09T10:46:09.992Z,6.45
2024-05-09T10:48:39.252Z,4.22
2024-05-09T10:51:06.766Z,4.32
2024-05-09T10:53:41.199Z,6.57
2024-05-09T10:56:09.019Z,8.75
2024-05-09T10:58:37.155Z,9.23
2024-05-09T11:01:07.067Z,7.88
2024-05-09T11:06:02.572Z,9.40
2024-05-09T11:08:31.612Z,7.32
2024-05-09T11:10:59.781Z,9.02
2024-05-09T11:13:31.228Z,6.55
2024-05-09T11:15:59.290Z,8.13
2024-05-09T11:18:29.796Z,8.73
2024-05-09T11:20:59.570Z,8.68
2024-05-09T11:23:30.642Z,8.90
2024-05-09T11:25:59.062Z,8.77
2024-05-09T11:28:28.403Z,9.57
2024-05-09T11:31:05.312Z,10.43
2024-05-09T11:33:32.786Z,11.70
2024-05-09T11:36:00.217Z,11.05
2024-05-09T11:38:27.572Z,11.40
2024-05-09T11:40:54.948Z,10.88
2024-05-09T11:43:22.348Z,11.40
2024-05-09T11:45:49.690Z,9.43
2024-05-09T11:48:17.193Z,9.38
2024-05-09T11:50:44.605Z,11.13
2024-05-09T11:53:12.417Z,9.93
2024-05-09T11:55:39.739Z,8.35
2024-05-09T11:58:08.408Z,10.20
2024-05-09T12:00:37.591Z,9.85
2024-05-09T12:03:06.019Z,11.13
2024-05-09T12:05:34.381Z,10.80
2024-05-09T12:08:02.463Z,8.38
2024-05-09T12:10:33.519Z,9.57
2024-05-09T12:13:04.975Z,9.57
2024-05-09T12:15:36.615Z,10.98
2024-05-09T12:18:05.436Z,10.38
2024-05-09T12:20:37.597Z,11.25
2024-05-09T12:23:07.520Z,10.82
2024-05-09T12:25:35.609Z,10.75
2024-05-09T12:28:02.999Z,12.73
2024-05-09T12:30:36.663Z,9.07
2024-05-09T12:33:13.905Z,11.90
2024-05-09T12:35:44.430Z,11.30
2024-05-09T12:38:14.401Z,12.30
2024-05-09T12:40:41.874Z,10.25
2024-05-09T12:43:10.553Z,13.60
2024-05-09T12:45:39.170Z,11.73
2024-05-09T12:48:11.317Z,12.70
2024-05-09T12:50:39.574Z,13.40
2024-05-09T12:53:06.985Z,12.68
2024-05-09T12:55:41.351Z,13.90
2024-05-09T12:58:16.765Z,12.35
2024-05-09T13:00:44.982Z,12.30
2024-05-09T13:03:12.706Z,13.07
2024-05-09T13:05:45.119Z,11.68
2024-05-09T13:08:13.118Z,11.55
2024-05-09T13:10:40.814Z,12.98
2024-05-09T13:13:09.749Z,13.50
2024-05-09T13:15:37.485Z,12.18
2024-05-09T13:18:05.752Z,10.60
2024-05-09T13:20:35.431Z,10.27
2024-05-09T13:23:04.689Z,12.43
2024-05-09T13:25:34.316Z,12.70
2024-05-09T13:28:02.011Z,13.63
2024-05-09T13:30:38.354Z,13.35
2024-05-09T13:33:09.525Z,12.55
2024-05-09T13:35:37.595Z,8.02
2024-05-09T13:38:05.432Z,13.40
2024-05-09T13:40:35.332Z,12.93
2024-05-09T13:43:04.676Z,13.55
2024-05-09T13:45:32.387Z,7.03
2024-05-09T13:48:00.190Z,11.80
2024-05-09T13:50:33.679Z,12.20
2024-05-09T13:53:05.071Z,12.68
2024-05-09T13:55:33.446Z,11.63
2024-05-09T13:58:00.984Z,12.23
2024-05-09T14:00:41.723Z,13.07
2024-05-09T14:03:14.591Z,14.30
2024-05-09T14:05:42.381Z,13.57
2024-05-09T14:08:09.839Z,14.35
2024-05-09T14:10:43.334Z,14.80
2024-05-09T14:13:11.302Z,14.23
2024-05-09T14:15:39.072Z,13.82
2024-05-09T14:18:09.497Z,13.52
2024-05-09T14:20:38.818Z,13.27
2024-05-09T14:23:06.111Z,12.30
2024-05-09T14:25:37.905Z,14.23
2024-05-09T14:28:08.119Z,10.68
2024-05-09T14:30:37.857Z,13.05
2024-05-09T14:33:07.491Z,13.07
2024-05-09T14:35:37.216Z,11.30
2024-05-09T14:38:04.868Z,12.60
2024-05-09T14:40:41.418Z,11.98
2024-05-09T14:43:11.833Z,11.63
2024-05-09T14:45:39.577Z,12.25
2024-05-09T14:48:07.645Z,11.90
2024-05-09T14:50:38.828Z,11.05
2024-05-09T14:53:08.270Z,12.43
2024-05-09T14:55:37.399Z,11.50
2024-05-09T14:58:09.340Z,12.13
2024-05-09T15:00:45.977Z,10.95
2024-05-09T15:03:17.260Z,12.50
2024-05-09T15:05:45.182Z,9.93
2024-05-09T15:08:12.558Z,11.13
2024-05-09T15:10:40.110Z,10.50
2024-05-09T15:13:09.633Z,11.73
2024-05-09T15:15:38.714Z,12.98
2024-05-09T15:18:08.912Z,10.35
2024-05-09T15:20:37.615Z,12.88
2024-05-09T15:23:07.108Z,10.15
2024-05-09T15:25:35.819Z,12.20
2024-05-09T15:28:07.065Z,11.95
2024-05-09T15:30:37.782Z,10.52
2024-05-09T15:33:07.520Z,13.00
2024-05-09T15:35:35.773Z,9.05
2024-05-09T15:38:04.250Z,11.85
2024-05-09T15:40:38.882Z,12.40
2024-05-09T15:43:09.313Z,9.32
2024-05-09T15:49:33.251Z,10.38
2024-05-09T15:52:00.728Z,11.70
2024-05-09T15:54:28.030Z,9.25
2024-05-09T15:56:55.329Z,8.93
2024-05-09T15:59:22.707Z,11.77
2024-05-09T16:01:50.106Z,11.60
2024-05-09T16:04:18.363Z,12.00
2024-05-09T16:06:47.954Z,11.20
2024-05-09T16:09:15.381Z,11.30
2024-05-09T16:11:42.706Z,10.00
2024-05-09T16:14:10.007Z,11.27
2024-05-09T16:16:37.355Z,10.52
2024-05-09T16:19:05.381Z,10.60
2024-05-09T16:21:32.820Z,10.15
2024-05-09T16:24:00.174Z,8.35
2024-05-09T16:26:27.432Z,11.23
2024-05-09T16:28:54.751Z,10.65
2024-05-09T16:31:22.141Z,11.38
2024-05-09T16:33:49.721Z,11.15
2024-05-09T16:36:17.140Z,9.00
2024-05-09T16:38:45.438Z,10.38
2024-05-09T16:41:14.884Z,11.05
2024-05-09T16:43:42.140Z,9.20
2024-05-09T16:46:09.552Z,10.15
2024-05-09T16:48:38.813Z,10.05
2024-05-09T16:51:06.211Z,8.93
2024-05-09T16:53:33.428Z,10.80
2024-05-09T16:56:02.238Z,11.45
2024-05-09T16:58:29.675Z,11.88
2024-05-09T17:00:57.265Z,11.70
2024-05-09T17:03:24.730Z,9.98
2024-05-09T17:05:52.390Z,11.57
2024-05-09T17:08:20.220Z,11.20
2024-05-09T17:10:51.177Z,11.98
2024-05-09T17:13:19.694Z,11.73
2024-05-09T17:15:47.353Z,12.70
2024-05-09T17:18:14.796Z,12.05
2024-05-09T17:20:45.443Z,12.25
2024-05-09T17:23:14.106Z,12.95
2024-05-09T17:25:42.195Z,14.02
2024-05-09T17:28:09.991Z,13.18
2024-05-09T17:30:39.736Z,14.90
2024-05-09T17:33:10.070Z,13.55
2024-05-09T17:35:38.436Z,13.63
2024-05-09T17:38:06.617Z,12.80
2024-05-09T17:40:36.742Z,12.60
2024-05-09T17:43:06.780Z,12.52
2024-05-09T17:45:37.564Z,12.90
2024-05-09T17:48:05.370Z,12.27
2024-05-09T17:50:36.067Z,11.85
2024-05-09T17:53:07.822Z,12.77
2024-05-09T17:55:36.063Z,12.80
2024-05-09T17:58:04.292Z,12.57
2024-05-09T18:00:38.582Z,11.95
2024-05-09T18:03:11.808Z,11.65
2024-05-09T18:05:40.423Z,13.15
2024-05-09T18:08:08.396Z,10.82
2024-05-09T18:10:38.672Z,11.13
2024-05-09T18:13:11.303Z,10.52
2024-05-09T18:15:39.412Z,12.10
2024-05-09T18:18:07.586Z,11.02
2024-05-09T18:20:42.349Z,9.82
2024-05-09T18:23:14.194Z,10.85
2024-05-09T18:25:42.465Z,11.57
2024-05-09T18:28:09.963Z,10.98
2024-05-09T18:30:37.873Z,10.68
2024-05-09T18:33:07.735Z,12.57
2024-05-09T18:35:36.261Z,12.18
2024-05-09T18:38:04.086Z,12.50
2024-05-09T18:40:35.544Z,11.73
2024-05-09T18:43:06.851Z,11.55
2024-05-09T18:45:36.604Z,11.50
2024-05-09T18:48:05.053Z,10.63
2024-05-09T18:50:37.522Z,12.40
2024-05-09T18:53:07.520Z,12.25
2024-05-09T18:55:35.024Z,12.48
2024-05-09T18:58:02.763Z,12.18
2024-05-09T19:00:35.324Z,11.30
2024-05-09T19:03:09.443Z,11.90
2024-05-09T19:05:39.425Z,11.45
2024-05-09T19:08:07.785Z,11.50
2024-05-09T19:10:36.128Z,10.93
2024-05-09T19:13:08.843Z,11.85
2024-05-09T19:15:43.659Z,11.00
2024-05-09T19:18:12.737Z,10.13
2024-05-09T19:20:44.180Z,10.32
2024-05-09T19:23:11.938Z,10.55
2024-05-09T19:25:39.359Z,11.13
2024-05-09T19:28:06.909Z,9.27
2024-05-09T19:30:39.776Z,10.65
2024-05-09T19:33:11.133Z,10.75
2024-05-09T19:35:42.394Z,11.13
2024-05-09T19:38:09.896Z,11.10
2024-05-09T19:40:37.388Z,10.80
2024-05-09T19:43:05.932Z,11.15
2024-05-09T19:45:36.677Z,10.73
2024-05-09T19:50:40.184Z,10.77
2024-05-09T19:53:11.482Z,10.57
2024-05-09T19:55:39.201Z,10.93
2024-05-09T19:58:07.717Z,10.07
2024-05-09T20:00:41.401Z,10.32
2024-05-09T20:03:11.933Z,10.55
2024-05-09T20:05:39.949Z,11.10
2024-05-09T20:08:07.624Z,10.98
2024-05-09T20:10:36.266Z,10.07
2024-05-09T20:13:07.786Z,10.27
2024-05-09T20:15:36.896Z,10.55
2024-05-09T20:18:05.307Z,10.40
2024-05-09T20:20:39.823Z,9.90
2024-05-09T20:23:10.581Z,10.13
2024-05-09T20:25:37.928Z,10.90
2024-05-09T20:28:06.165Z,10.30
2024-05-09T20:30:37.136Z,10.55
2024-05-09T20:33:09.088Z,10.85
2024-05-09T20:35:37.347Z,9.85
2024-05-09T20:38:05.008Z,10.23
2024-05-09T20:40:36.733Z,10.73
2024-05-09T20:43:07.264Z,10.85
2024-05-09T20:45:35.207Z,11.20
2024-05-09T20:48:03.020Z,11.48
2024-05-09T20:50:37.517Z,11.23
2024-05-09T20:53:10.303Z,11.45
2024-05-09T20:55:37.791Z,11.20
2024-05-09T20:58:05.379Z,10.90
2024-05-09T21:00:40.202Z,12.35
2024-05-09T21:03:11.788Z,11.25
2024-05-09T21:05:39.992Z,12.25
2024-05-09T21:08:07.854Z,12.48
2024-05-09T21:10:35.875Z,10.98
2024-05-09T21:13:04.044Z,11.02
2024-05-09T21:15:32.183Z,10.30
2024-05-09T21:17:59.824Z,10.88
2024-05-09T21:20:31.330Z,10.60
2024-05-09T21:22:59.970Z,10.52
2024-05-09T21:25:27.624Z,10.35
2024-05-09T21:27:55.508Z,10.88
2024-05-09T21:30:32.227Z,10.50
2024-05-09T21:33:10.092Z,10.68
2024-05-09T21:35:38.793Z,11.20
2024-05-09T21:38:07.099Z,10.82
2024-05-09T21:40:36.204Z,10.55
2024-05-09T21:43:08.084Z,10.57
2024-05-09T21:45:36.272Z,10.73
2024-05-09T21:48:04.627Z,11.18
2024-05-09T21:50:39.088Z,11.00
2024-05-09T21:53:08.810Z,11.73
2024-05-09T21:55:36.140Z,12.02
2024-05-09T21:58:03.824Z,11.45
2024-05-09T22:00:36.830Z,12.18
2024-05-09T22:03:06.900Z,11.75
2024-05-09T22:05:35.073Z,11.88
2024-05-09T22:08:02.502Z,12.68
2024-05-09T22:10:34.485Z,12.43
2024-05-09T22:13:04.324Z,12.65
2024-05-09T22:15:35.226Z,12.57
2024-05-09T22:20:44.658Z,12.73
2024-05-09T22:23:13.230Z,11.38
2024-05-09T22:25:40.514Z,12.15
2024-05-09T22:28:08.140Z,11.85
2024-05-09T22:30:39.373Z,12.25
2024-05-09T22:33:12.041Z,11.75
2024-05-09T22:35:40.897Z,11.77
2024-05-09T22:38:08.646Z,12.63
2024-05-09T22:40:46.764Z,12.18
2024-05-09T22:43:18.271Z,12.55
2024-05-09T22:45:45.969Z,12.52
2024-05-09T22:48:19.323Z,12.80
2024-05-09T22:50:46.731Z,11.88
2024-05-09T22:53:13.989Z,12.30
2024-05-09T22:55:41.299Z,14.18
2024-05-09T22:58:08.616Z,12.70
2024-05-09T23:00:36.103Z,11.80
2024-05-09T23:03:03.769Z,11.35
2024-05-09T23:05:40.819Z,11.23
2024-05-09T23:08:09.245Z,11.75
2024-05-09T23:10:38.017Z,12.05
2024-05-09T23:13:08.907Z,11.98
2024-05-09T23:18:08.858Z,10.70
2024-05-09T23:20:39.167Z,10.27
2024-05-09T23:23:07.828Z,10.93
2024-05-09T23:25:35.516Z,10.95
2024-05-09T23:28:05.431Z,11.30
2024-05-09T23:30:39.336Z,10.52
2024-05-09T23:33:08.928Z,10.27
2024-05-09T23:35:40.857Z,11.32
2024-05-09T23:38:09.282Z,10.50
2024-05-09T23:40:39.806Z,10.25
2024-05-09T23:43:13.735Z,10.07
2024-05-09T23:45:43.865Z,11.45
2024-05-09T23:48:11.741Z,10.32
2024-05-09T23:50:40.476Z,10.57
2024-05-09T23:53:09.640Z,9.77
2024-05-09T23:55:38.014Z,9.73
2024-05-09T23:58:05.793Z,9.70
